Flight Track Log - Related Links

Times and Time Zones

All times are in EDT time to prevent confusion due to time zone crossing. See the N9769H flight status page for this flight to view local times or setup timezone preferences in your user account.

Time Position Orientation Groundspeed Altitude Reporting Facility
EDT Latitude Longitude Course Direction KTS MPH feet Rate Location/Type
Tue 11:39:45 AM 34.6447 -89.7211 169° South 121 139 5,000  Level Memphis Center
Tue 11:40:45 AM 34.6156 -89.7161 172° South 114 131 5,400 250 Climbing Memphis Center
Tue 11:41:45 AM 34.5822 -89.7114 173° South 120 138 5,500 50 Climbing Memphis Center
Tue 11:42:45 AM 34.5467 -89.7092 177° South 125 144 5,500  Level Memphis Center
Tue 11:43:45 AM 34.5111 -89.7044 174° South 130 150 5,500  Level Memphis Center
Tue 11:44:00 AM 34.5200 -89.8583 169° South  Level Estimated
Tue 11:44:45 AM 34.4736 -89.6994 174° South 130 150 5,500  Level Memphis Center
Tue 11:45:45 AM 34.4358 -89.6972 177° South 130 150 5,500  Level Memphis Center
Tue 11:46:45 AM 34.3983 -89.6925 174° South 130 150 5,500  Level Memphis Center
Tue 11:47:45 AM 34.3608 -89.6853 171° South 130 150 5,500  Level Memphis Center
Tue 11:48:45 AM 34.3253 -89.6806 174° South 130 150 5,500  Level Memphis Center
Tue 11:49:45 AM 34.2919 -89.6783 177° South 130 150 5,500  Level Memphis Center
Tue 11:50:45 AM 34.2542 -89.6736 174° South 130 150 5,500 -50 Level Memphis Center
Tue 11:51:45 AM 34.2189 -89.6689 174° South 125 144 5,400  Descending Memphis Center
Tue 11:52:46 AM 34.1853 -89.6667 177° South 125 144 5,500 50 Climbing Memphis Center
Tue 11:53:45 AM 34.1478 -89.6619 174° South 125 144 5,500  Level Memphis Center
Tue 11:54:45 AM 34.1122 -89.6597 177° South 125 144 5,500  Level Memphis Center
Tue 11:55:45 AM 34.0789 -89.6550 173° South 125 144 5,500  Level Memphis Center
Tue 11:56:45 AM 34.0456 -89.6503 173° South 125 144 5,500  Level Memphis Center
Tue 11:57:45 AM 34.0078 -89.6431 171° South 125 144 5,500  Level Memphis Center
Tue 11:58:45 AM 33.9703 -89.6358 171° South 125 144 5,500  Level Memphis Center
Tue 11:59:46 AM 33.9367 -89.6311 173° South 125 144 5,500  Level Memphis Center
Tue 12:00:45 PM 33.9014 -89.6264 174° South 125 144 5,500  Level Memphis Center
Tue 12:01:45 PM 33.8617 -89.6192 171° South 125 144 5,500  Level Memphis Center
Tue 12:02:45 PM 33.8261 -89.6169 177° South 130 150 5,500 50 Level Memphis Center
Tue 12:03:45 PM 33.7928 -89.6247 191° South 130 150 5,600 50 Climbing Memphis Center
Tue 12:04:45 PM 33.7594 -89.6250 180° South 130 150 5,600  Level Memphis Center
Tue 12:05:45 PM 33.7217 -89.6231 178° South 130 150 5,600 -149 Level Memphis Center
Tue 12:06:46 PM 33.6864 -89.6183 174° South 130 150 5,300 -450 Descending Memphis Center
Tue 12:07:45 PM 33.6486 -89.6111 171° South 136 157 4,700 -655 Descending Memphis Center
Tue 12:08:45 PM 33.6089 -89.6114 180° South 142 163 4,000 -700 Descending Memphis Center

Login

Don't have an account? Register now (free) for customized features, flight alerts, and more!